sensor_id;sensor_type;location;lat;lon;timestamp;P1;durP1;ratioP1;P2;durP2;ratioP2
1591;SDS011;789;51.612;7.510;2023-06-19T00:00:17;9.07;;;8.37;;
1591;SDS011;789;51.612;7.510;2023-06-19T00:02:44;10.83;;;8.20;;
1591;SDS011;789;51.612;7.510;2023-06-19T00:05:12;8.17;;;7.47;;
1591;SDS011;789;51.612;7.510;2023-06-19T00:07:41;8.10;;;7.30;;
1591;SDS011;789;51.612;7.510;2023-06-19T00:10:10;8.07;;;7.37;;
1591;SDS011;789;51.612;7.510;2023-06-19T00:12:37;7.40;;;6.80;;
1591;SDS011;789;51.612;7.510;2023-06-19T00:15:05;7.70;;;7.10;;
1591;SDS011;789;51.612;7.510;2023-06-19T00:17:34;7.60;;;6.90;;
1591;SDS011;789;51.612;7.510;2023-06-19T00:20:02;8.20;;;7.20;;
1591;SDS011;789;51.612;7.510;2023-06-19T00:22:31;7.33;;;6.73;;
1591;SDS011;789;51.612;7.510;2023-06-19T00:24:58;7.60;;;6.90;;
1591;SDS011;789;51.612;7.510;2023-06-19T00:27:26;6.67;;;6.07;;
1591;SDS011;789;51.612;7.510;2023-06-19T00:29:52;13.37;;;7.63;;
1591;SDS011;789;51.612;7.510;2023-06-19T00:32:26;7.37;;;6.87;;
1591;SDS011;789;51.612;7.510;2023-06-19T00:34:53;7.53;;;6.83;;
1591;SDS011;789;51.612;7.510;2023-06-19T00:37:19;8.13;;;7.37;;
1591;SDS011;789;51.612;7.510;2023-06-19T00:39:48;6.70;;;6.10;;
1591;SDS011;789;51.612;7.510;2023-06-19T00:42:14;7.73;;;6.60;;
1591;SDS011;789;51.612;7.510;2023-06-19T00:44:41;7.93;;;7.00;;
1591;SDS011;789;51.612;7.510;2023-06-19T00:47:08;7.73;;;6.60;;
1591;SDS011;789;51.612;7.510;2023-06-19T00:49:35;7.57;;;6.97;;
1591;SDS011;789;51.612;7.510;2023-06-19T00:52:02;7.53;;;6.93;;
1591;SDS011;789;51.612;7.510;2023-06-19T00:54:29;8.43;;;7.03;;
1591;SDS011;789;51.612;7.510;2023-06-19T00:56:58;7.13;;;6.53;;
1591;SDS011;789;51.612;7.510;2023-06-19T00:59:25;7.23;;;6.63;;
1591;SDS011;789;51.612;7.510;2023-06-19T01:01:53;9.87;;;7.10;;
1591;SDS011;789;51.612;7.510;2023-06-19T01:04:20;10.63;;;7.83;;
1591;SDS011;789;51.612;7.510;2023-06-19T01:06:50;8.17;;;7.47;;
1591;SDS011;789;51.612;7.510;2023-06-19T01:09:23;7.93;;;7.33;;
1591;SDS011;789;51.612;7.510;2023-06-19T01:11:57;8.73;;;7.70;;
1591;SDS011;789;51.612;7.510;2023-06-19T01:14:31;7.70;;;6.97;;
1591;SDS011;789;51.612;7.510;2023-06-19T01:17:02;7.37;;;6.77;;
1591;SDS011;789;51.612;7.510;2023-06-19T01:19:29;8.20;;;7.40;;
1591;SDS011;789;51.612;7.510;2023-06-19T01:24:27;7.40;;;6.70;;
1591;SDS011;789;51.612;7.510;2023-06-19T01:26:54;8.00;;;7.33;;
1591;SDS011;789;51.612;7.510;2023-06-19T01:29:21;8.53;;;7.73;;
1591;SDS011;789;51.612;7.510;2023-06-19T01:31:50;7.93;;;7.23;;
1591;SDS011;789;51.612;7.510;2023-06-19T01:34:21;7.77;;;7.00;;
1591;SDS011;789;51.612;7.510;2023-06-19T01:36:51;7.97;;;7.37;;
1591;SDS011;789;51.612;7.510;2023-06-19T01:39:23;8.43;;;7.73;;
1591;SDS011;789;51.612;7.510;2023-06-19T01:41:51;7.50;;;6.90;;
1591;SDS011;789;51.612;7.510;2023-06-19T01:44:20;7.93;;;7.33;;
1591;SDS011;789;51.612;7.510;2023-06-19T01:46:47;10.23;;;7.10;;
1591;SDS011;789;51.612;7.510;2023-06-19T01:49:15;8.20;;;7.60;;
1591;SDS011;789;51.612;7.510;2023-06-19T01:51:42;12.80;;;9.37;;
1591;SDS011;789;51.612;7.510;2023-06-19T01:54:08;7.13;;;6.63;;
1591;SDS011;789;51.612;7.510;2023-06-19T01:56:37;7.87;;;7.03;;
1591;SDS011;789;51.612;7.510;2023-06-19T01:59:04;8.80;;;8.10;;
1591;SDS011;789;51.612;7.510;2023-06-19T02:01:31;9.47;;;8.30;;
1591;SDS011;789;51.612;7.510;2023-06-19T02:03:57;9.23;;;8.00;;
1591;SDS011;789;51.612;7.510;2023-06-19T02:06:24;9.03;;;8.13;;
1591;SDS011;789;51.612;7.510;2023-06-19T02:08:51;9.10;;;8.20;;
1591;SDS011;789;51.612;7.510;2023-06-19T02:11:17;8.80;;;8.00;;
1591;SDS011;789;51.612;7.510;2023-06-19T02:13:46;8.97;;;8.00;;
1591;SDS011;789;51.612;7.510;2023-06-19T02:16:13;8.73;;;8.03;;
1591;SDS011;789;51.612;7.510;2023-06-19T02:18:40;9.43;;;8.30;;
1591;SDS011;789;51.612;7.510;2023-06-19T02:21:07;12.93;;;8.70;;
1591;SDS011;789;51.612;7.510;2023-06-19T02:23:33;7.80;;;7.20;;
1591;SDS011;789;51.612;7.510;2023-06-19T02:26:00;8.60;;;7.90;;
1591;SDS011;789;51.612;7.510;2023-06-19T02:28:27;8.50;;;7.60;;
1591;SDS011;789;51.612;7.510;2023-06-19T02:30:55;8.00;;;7.30;;
1591;SDS011;789;51.612;7.510;2023-06-19T02:33:21;8.10;;;7.40;;
1591;SDS011;789;51.612;7.510;2023-06-19T02:35:48;9.40;;;6.70;;
1591;SDS011;789;51.612;7.510;2023-06-19T02:38:15;8.40;;;6.97;;
1591;SDS011;789;51.612;7.510;2023-06-19T02:40:46;8.90;;;8.00;;
1591;SDS011;789;51.612;7.510;2023-06-19T02:43:12;8.27;;;7.57;;
1591;SDS011;789;51.612;7.510;2023-06-19T02:45:40;7.80;;;7.20;;
1591;SDS011;789;51.612;7.510;2023-06-19T02:48:08;8.27;;;7.50;;
1591;SDS011;789;51.612;7.510;2023-06-19T02:50:36;8.57;;;7.97;;
1591;SDS011;789;51.612;7.510;2023-06-19T02:53:03;10.13;;;8.83;;
1591;SDS011;789;51.612;7.510;2023-06-19T02:55:29;8.63;;;7.93;;
1591;SDS011;789;51.612;7.510;2023-06-19T02:57:56;8.33;;;7.53;;
1591;SDS011;789;51.612;7.510;2023-06-19T03:00:25;8.47;;;7.77;;
1591;SDS011;789;51.612;7.510;2023-06-19T03:02:53;8.20;;;7.60;;
1591;SDS011;789;51.612;7.510;2023-06-19T03:05:21;8.73;;;8.10;;
1591;SDS011;789;51.612;7.510;2023-06-19T03:07:48;8.70;;;8.00;;
1591;SDS011;789;51.612;7.510;2023-06-19T03:10:15;9.13;;;8.43;;
1591;SDS011;789;51.612;7.510;2023-06-19T03:12:42;9.27;;;8.33;;
1591;SDS011;789;51.612;7.510;2023-06-19T03:15:09;9.20;;;8.40;;
1591;SDS011;789;51.612;7.510;2023-06-19T03:17:36;9.83;;;8.83;;
1591;SDS011;789;51.612;7.510;2023-06-19T03:20:02;10.33;;;9.50;;
1591;SDS011;789;51.612;7.510;2023-06-19T03:22:32;10.30;;;9.40;;
1591;SDS011;789;51.612;7.510;2023-06-19T03:24:58;10.07;;;9.03;;
1591;SDS011;789;51.612;7.510;2023-06-19T03:27:25;10.23;;;8.30;;
1591;SDS011;789;51.612;7.510;2023-06-19T03:29:52;8.73;;;8.03;;
1591;SDS011;789;51.612;7.510;2023-06-19T03:32:19;9.37;;;8.47;;
1591;SDS011;789;51.612;7.510;2023-06-19T03:34:46;7.83;;;7.23;;
1591;SDS011;789;51.612;7.510;2023-06-19T03:37:13;9.40;;;8.50;;
1591;SDS011;789;51.612;7.510;2023-06-19T03:39:42;9.90;;;7.70;;
1591;SDS011;789;51.612;7.510;2023-06-19T03:42:09;8.60;;;7.80;;
1591;SDS011;789;51.612;7.510;2023-06-19T03:44:36;9.27;;;8.40;;
1591;SDS011;789;51.612;7.510;2023-06-19T03:47:03;9.63;;;8.63;;
1591;SDS011;789;51.612;7.510;2023-06-19T03:49:30;11.30;;;8.30;;
1591;SDS011;789;51.612;7.510;2023-06-19T03:51:57;8.73;;;8.03;;
1591;SDS011;789;51.612;7.510;2023-06-19T03:54:24;9.20;;;8.40;;
1591;SDS011;789;51.612;7.510;2023-06-19T03:56:52;8.80;;;8.00;;
1591;SDS011;789;51.612;7.510;2023-06-19T03:59:19;8.07;;;7.37;;
1591;SDS011;789;51.612;7.510;2023-06-19T04:01:45;12.20;;;7.47;;
1591;SDS011;789;51.612;7.510;2023-06-19T04:04:12;10.43;;;7.50;;
1591;SDS011;789;51.612;7.510;2023-06-19T04:06:39;7.37;;;6.77;;
1591;SDS011;789;51.612;7.510;2023-06-19T04:09:06;8.30;;;7.40;;
1591;SDS011;789;51.612;7.510;2023-06-19T04:11:32;9.70;;;6.27;;
1591;SDS011;789;51.612;7.510;2023-06-19T04:14:00;8.70;;;6.60;;
1591;SDS011;789;51.612;7.510;2023-06-19T04:16:27;5.70;;;5.20;;
1591;SDS011;789;51.612;7.510;2023-06-19T04:18:54;9.70;;;5.83;;
1591;SDS011;789;51.612;7.510;2023-06-19T04:21:20;8.93;;;5.57;;
1591;SDS011;789;51.612;7.510;2023-06-19T04:23:47;7.17;;;5.50;;
1591;SDS011;789;51.612;7.510;2023-06-19T04:26:14;6.30;;;5.67;;
1591;SDS011;789;51.612;7.510;2023-06-19T04:28:41;6.60;;;5.07;;
1591;SDS011;789;51.612;7.510;2023-06-19T04:31:09;6.53;;;5.17;;
1591;SDS011;789;51.612;7.510;2023-06-19T04:33:36;10.30;;;5.23;;
1591;SDS011;789;51.612;7.510;2023-06-19T04:36:03;5.63;;;5.13;;
1591;SDS011;789;51.612;7.510;2023-06-19T04:38:29;5.83;;;5.33;;
1591;SDS011;789;51.612;7.510;2023-06-19T04:40:56;5.00;;;4.50;;
1591;SDS011;789;51.612;7.510;2023-06-19T04:43:23;5.30;;;4.90;;
1591;SDS011;789;51.612;7.510;2023-06-19T04:45:50;8.37;;;5.03;;
1591;SDS011;789;51.612;7.510;2023-06-19T04:48:18;7.20;;;4.60;;
1591;SDS011;789;51.612;7.510;2023-06-19T04:50:51;4.37;;;3.97;;
1591;SDS011;789;51.612;7.510;2023-06-19T04:53:21;6.33;;;4.20;;
1591;SDS011;789;51.612;7.510;2023-06-19T04:55:48;5.30;;;4.33;;
1591;SDS011;789;51.612;7.510;2023-06-19T04:58:15;5.00;;;4.10;;
1591;SDS011;789;51.612;7.510;2023-06-19T05:00:41;5.57;;;5.00;;
1591;SDS011;789;51.612;7.510;2023-06-19T05:03:08;6.50;;;5.50;;
1591;SDS011;789;51.612;7.510;2023-06-19T05:05:40;5.10;;;4.40;;
1591;SDS011;789;51.612;7.510;2023-06-19T05:08:06;7.80;;;4.30;;
1591;SDS011;789;51.612;7.510;2023-06-19T05:10:33;6.20;;;4.50;;
1591;SDS011;789;51.612;7.510;2023-06-19T05:13:00;5.60;;;5.10;;
1591;SDS011;789;51.612;7.510;2023-06-19T05:15:28;5.13;;;4.00;;
1591;SDS011;789;51.612;7.510;2023-06-19T05:17:54;5.47;;;4.70;;
1591;SDS011;789;51.612;7.510;2023-06-19T05:20:21;4.97;;;4.40;;
1591;SDS011;789;51.612;7.510;2023-06-19T05:22:49;6.20;;;4.57;;
1591;SDS011;789;51.612;7.510;2023-06-19T05:25:16;6.70;;;4.50;;
1591;SDS011;789;51.612;7.510;2023-06-19T05:27:43;6.20;;;4.00;;
1591;SDS011;789;51.612;7.510;2023-06-19T05:30:10;6.30;;;5.03;;
1591;SDS011;789;51.612;7.510;2023-06-19T05:32:37;5.47;;;3.93;;
1591;SDS011;789;51.612;7.510;2023-06-19T05:35:04;5.17;;;4.67;;
1591;SDS011;789;51.612;7.510;2023-06-19T05:37:32;4.80;;;4.40;;
1591;SDS011;789;51.612;7.510;2023-06-19T05:40:00;4.67;;;4.27;;
1591;SDS011;789;51.612;7.510;2023-06-19T05:42:29;4.50;;;4.00;;
1591;SDS011;789;51.612;7.510;2023-06-19T05:44:55;4.90;;;3.90;;
1591;SDS011;789;51.612;7.510;2023-06-19T05:47:22;8.13;;;4.27;;
1591;SDS011;789;51.612;7.510;2023-06-19T05:49:50;4.30;;;3.63;;
1591;SDS011;789;51.612;7.510;2023-06-19T05:52:17;7.03;;;4.40;;
1591;SDS011;789;51.612;7.510;2023-06-19T05:54:44;5.43;;;4.60;;
1591;SDS011;789;51.612;7.510;2023-06-19T05:57:12;5.57;;;4.40;;
1591;SDS011;789;51.612;7.510;2023-06-19T05:59:41;5.30;;;3.83;;
1591;SDS011;789;51.612;7.510;2023-06-19T06:02:07;4.10;;;3.80;;
1591;SDS011;789;51.612;7.510;2023-06-19T06:04:34;5.23;;;4.20;;
1591;SDS011;789;51.612;7.510;2023-06-19T06:07:01;6.90;;;4.23;;
1591;SDS011;789;51.612;7.510;2023-06-19T06:09:28;4.07;;;3.07;;
1591;SDS011;789;51.612;7.510;2023-06-19T06:11:56;6.17;;;3.63;;
1591;SDS011;789;51.612;7.510;2023-06-19T06:14:24;4.27;;;3.87;;
1591;SDS011;789;51.612;7.510;2023-06-19T06:16:51;3.90;;;3.60;;
1591;SDS011;789;51.612;7.510;2023-06-19T06:19:19;5.23;;;3.77;;
1591;SDS011;789;51.612;7.510;2023-06-19T06:21:46;5.40;;;3.57;;
1591;SDS011;789;51.612;7.510;2023-06-19T06:24:12;3.73;;;3.43;;
1591;SDS011;789;51.612;7.510;2023-06-19T06:26:39;4.60;;;3.90;;
1591;SDS011;789;51.612;7.510;2023-06-19T06:29:06;5.17;;;3.53;;
1591;SDS011;789;51.612;7.510;2023-06-19T06:31:37;5.47;;;3.83;;
1591;SDS011;789;51.612;7.510;2023-06-19T06:34:04;5.60;;;3.83;;
1591;SDS011;789;51.612;7.510;2023-06-19T06:36:34;28.40;;;25.33;;
1591;SDS011;789;51.612;7.510;2023-06-19T06:39:00;9.07;;;7.50;;
1591;SDS011;789;51.612;7.510;2023-06-19T06:41:30;5.40;;;4.33;;
1591;SDS011;789;51.612;7.510;2023-06-19T06:43:57;6.30;;;4.10;;
1591;SDS011;789;51.612;7.510;2023-06-19T06:46:24;4.70;;;4.30;;
1591;SDS011;789;51.612;7.510;2023-06-19T06:48:52;5.80;;;4.03;;
1591;SDS011;789;51.612;7.510;2023-06-19T06:51:19;4.20;;;3.53;;
1591;SDS011;789;51.612;7.510;2023-06-19T06:53:47;3.20;;;2.90;;
1591;SDS011;789;51.612;7.510;2023-06-19T06:56:15;6.43;;;3.50;;
1591;SDS011;789;51.612;7.510;2023-06-19T06:58:42;3.87;;;3.50;;
1591;SDS011;789;51.612;7.510;2023-06-19T07:01:11;4.57;;;3.97;;
1591;SDS011;789;51.612;7.510;2023-06-19T07:03:37;5.43;;;3.97;;
1591;SDS011;789;51.612;7.510;2023-06-19T07:06:06;7.17;;;4.20;;
1591;SDS011;789;51.612;7.510;2023-06-19T07:08:33;4.83;;;4.53;;
1591;SDS011;789;51.612;7.510;2023-06-19T07:10:59;6.47;;;5.10;;
1591;SDS011;789;51.612;7.510;2023-06-19T07:13:27;5.60;;;5.20;;
1591;SDS011;789;51.612;7.510;2023-06-19T07:15:53;6.20;;;5.60;;
1591;SDS011;789;51.612;7.510;2023-06-19T07:18:23;4.73;;;4.40;;
1591;SDS011;789;51.612;7.510;2023-06-19T07:20:50;4.63;;;4.27;;
1591;SDS011;789;51.612;7.510;2023-06-19T07:23:21;6.03;;;4.27;;
1591;SDS011;789;51.612;7.510;2023-06-19T07:25:48;4.90;;;4.50;;
1591;SDS011;789;51.612;7.510;2023-06-19T07:28:15;4.03;;;3.60;;
1591;SDS011;789;51.612;7.510;2023-06-19T07:30:42;4.10;;;3.80;;
1591;SDS011;789;51.612;7.510;2023-06-19T07:33:09;4.93;;;3.30;;
1591;SDS011;789;51.612;7.510;2023-06-19T07:35:36;4.20;;;3.80;;
1591;SDS011;789;51.612;7.510;2023-06-19T07:38:02;4.20;;;3.80;;
1591;SDS011;789;51.612;7.510;2023-06-19T07:40:31;4.30;;;3.90;;
1591;SDS011;789;51.612;7.510;2023-06-19T07:42:59;4.60;;;3.90;;
1591;SDS011;789;51.612;7.510;2023-06-19T07:45:26;5.37;;;4.10;;
1591;SDS011;789;51.612;7.510;2023-06-19T07:47:55;7.47;;;4.40;;
1591;SDS011;789;51.612;7.510;2023-06-19T07:50:25;4.50;;;3.33;;
1591;SDS011;789;51.612;7.510;2023-06-19T07:52:52;4.93;;;4.50;;
1591;SDS011;789;51.612;7.510;2023-06-19T07:55:20;6.07;;;4.60;;
1591;SDS011;789;51.612;7.510;2023-06-19T07:57:48;5.30;;;4.80;;
1591;SDS011;789;51.612;7.510;2023-06-19T08:00:15;7.73;;;5.00;;
1591;SDS011;789;51.612;7.510;2023-06-19T08:02:42;5.80;;;5.30;;
1591;SDS011;789;51.612;7.510;2023-06-19T08:05:09;6.93;;;4.50;;
1591;SDS011;789;51.612;7.510;2023-06-19T08:07:36;6.90;;;5.80;;
1591;SDS011;789;51.612;7.510;2023-06-19T08:10:03;5.30;;;4.90;;
1591;SDS011;789;51.612;7.510;2023-06-19T08:12:31;5.60;;;5.10;;
1591;SDS011;789;51.612;7.510;2023-06-19T08:14:59;6.50;;;5.20;;
1591;SDS011;789;51.612;7.510;2023-06-19T08:17:26;5.93;;;5.43;;
1591;SDS011;789;51.612;7.510;2023-06-19T08:19:54;5.63;;;4.03;;
1591;SDS011;789;51.612;7.510;2023-06-19T08:22:20;5.07;;;4.57;;
1591;SDS011;789;51.612;7.510;2023-06-19T08:24:47;4.50;;;4.10;;
1591;SDS011;789;51.612;7.510;2023-06-19T08:27:14;4.20;;;3.60;;
1591;SDS011;789;51.612;7.510;2023-06-19T08:29:41;4.07;;;3.67;;
1591;SDS011;789;51.612;7.510;2023-06-19T08:32:09;4.20;;;3.90;;
1591;SDS011;789;51.612;7.510;2023-06-19T08:34:36;6.20;;;3.80;;
1591;SDS011;789;51.612;7.510;2023-06-19T08:37:03;3.70;;;3.40;;
1591;SDS011;789;51.612;7.510;2023-06-19T08:39:30;5.83;;;3.40;;
1591;SDS011;789;51.612;7.510;2023-06-19T08:41:57;7.97;;;3.33;;
1591;SDS011;789;51.612;7.510;2023-06-19T08:44:24;10.90;;;4.00;;
1591;SDS011;789;51.612;7.510;2023-06-19T08:46:51;4.53;;;3.33;;
1591;SDS011;789;51.612;7.510;2023-06-19T08:49:19;5.37;;;3.10;;
1591;SDS011;789;51.612;7.510;2023-06-19T08:51:46;10.93;;;3.67;;
1591;SDS011;789;51.612;7.510;2023-06-19T08:54:12;8.20;;;3.80;;
1591;SDS011;789;51.612;7.510;2023-06-19T08:56:39;8.17;;;3.77;;
1591;SDS011;789;51.612;7.510;2023-06-19T08:59:09;3.47;;;3.17;;
1591;SDS011;789;51.612;7.510;2023-06-19T09:01:36;4.70;;;3.10;;
1591;SDS011;789;51.612;7.510;2023-06-19T09:04:10;6.00;;;2.90;;
1591;SDS011;789;51.612;7.510;2023-06-19T09:06:48;3.73;;;2.50;;
1591;SDS011;789;51.612;7.510;2023-06-19T09:09:15;2.57;;;2.37;;
1591;SDS011;789;51.612;7.510;2023-06-19T09:11:42;2.40;;;2.17;;
1591;SDS011;789;51.612;7.510;2023-06-19T09:14:09;8.60;;;3.20;;
1591;SDS011;789;51.612;7.510;2023-06-19T09:16:37;5.70;;;2.73;;
1591;SDS011;789;51.612;7.510;2023-06-19T09:19:04;8.30;;;2.87;;
1591;SDS011;789;51.612;7.510;2023-06-19T09:21:35;2.57;;;2.37;;
1591;SDS011;789;51.612;7.510;2023-06-19T09:24:05;12.60;;;3.33;;
1591;SDS011;789;51.612;7.510;2023-06-19T09:26:32;3.23;;;2.90;;
1591;SDS011;789;51.612;7.510;2023-06-19T09:29:09;5.03;;;3.50;;
1591;SDS011;789;51.612;7.510;2023-06-19T09:31:36;7.13;;;3.73;;
1591;SDS011;789;51.612;7.510;2023-06-19T09:34:04;5.00;;;3.07;;
1591;SDS011;789;51.612;7.510;2023-06-19T09:36:31;5.63;;;3.17;;
1591;SDS011;789;51.612;7.510;2023-06-19T09:38:58;6.53;;;3.50;;
1591;SDS011;789;51.612;7.510;2023-06-19T09:41:29;4.40;;;4.00;;
1591;SDS011;789;51.612;7.510;2023-06-19T09:43:57;6.57;;;3.70;;
1591;SDS011;789;51.612;7.510;2023-06-19T09:46:25;5.97;;;3.90;;
1591;SDS011;789;51.612;7.510;2023-06-19T09:48:55;8.20;;;4.00;;
1591;SDS011;789;51.612;7.510;2023-06-19T09:51:27;4.50;;;3.60;;
1591;SDS011;789;51.612;7.510;2023-06-19T09:53:57;7.93;;;3.53;;
1591;SDS011;789;51.612;7.510;2023-06-19T09:56:26;4.70;;;3.17;;
1591;SDS011;789;51.612;7.510;2023-06-19T09:58:56;5.13;;;2.70;;
1591;SDS011;789;51.612;7.510;2023-06-19T10:01:25;4.40;;;2.70;;
1591;SDS011;789;51.612;7.510;2023-06-19T10:04:03;2.87;;;2.60;;
1591;SDS011;789;51.612;7.510;2023-06-19T10:06:42;6.33;;;2.53;;
1591;SDS011;789;51.612;7.510;2023-06-19T10:09:10;5.37;;;2.40;;
1591;SDS011;789;51.612;7.510;2023-06-19T10:11:49;3.93;;;2.33;;
1591;SDS011;789;51.612;7.510;2023-06-19T10:14:19;4.73;;;2.43;;
1591;SDS011;789;51.612;7.510;2023-06-19T10:16:46;5.47;;;3.10;;
1591;SDS011;789;51.612;7.510;2023-06-19T10:19:14;6.20;;;2.80;;
1591;SDS011;789;51.612;7.510;2023-06-19T10:21:45;4.60;;;3.77;;
1591;SDS011;789;51.612;7.510;2023-06-19T10:24:14;3.97;;;3.67;;
1591;SDS011;789;51.612;7.510;2023-06-19T10:26:43;4.33;;;3.73;;
1591;SDS011;789;51.612;7.510;2023-06-19T10:29:13;8.80;;;3.80;;
1591;SDS011;789;51.612;7.510;2023-06-19T10:31:42;5.97;;;4.00;;
1591;SDS011;789;51.612;7.510;2023-06-19T10:34:09;4.17;;;3.77;;
1591;SDS011;789;51.612;7.510;2023-06-19T10:36:37;4.87;;;3.50;;
1591;SDS011;789;51.612;7.510;2023-06-19T10:39:03;4.13;;;3.73;;
1591;SDS011;789;51.612;7.510;2023-06-19T10:41:31;4.17;;;3.70;;
1591;SDS011;789;51.612;7.510;2023-06-19T10:43:58;4.90;;;3.67;;
1591;SDS011;789;51.612;7.510;2023-06-19T10:46:28;4.30;;;3.80;;
1591;SDS011;789;51.612;7.510;2023-06-19T10:48:58;5.30;;;3.50;;
1591;SDS011;789;51.612;7.510;2023-06-19T10:51:26;4.20;;;3.80;;
1591;SDS011;789;51.612;7.510;2023-06-19T10:53:53;3.70;;;3.37;;
1591;SDS011;789;51.612;7.510;2023-06-19T10:56:21;7.70;;;3.60;;
1591;SDS011;789;51.612;7.510;2023-06-19T10:58:55;4.80;;;3.90;;
1591;SDS011;789;51.612;7.510;2023-06-19T11:01:31;10.17;;;4.70;;
1591;SDS011;789;51.612;7.510;2023-06-19T11:04:00;5.57;;;4.67;;
1591;SDS011;789;51.612;7.510;2023-06-19T11:06:28;5.83;;;5.33;;
1591;SDS011;789;51.612;7.510;2023-06-19T11:08:56;4.87;;;4.33;;
1591;SDS011;789;51.612;7.510;2023-06-19T11:11:33;8.80;;;4.03;;
1591;SDS011;789;51.612;7.510;2023-06-19T11:14:01;4.53;;;4.13;;
1591;SDS011;789;51.612;7.510;2023-06-19T11:16:28;5.00;;;4.50;;
1591;SDS011;789;51.612;7.510;2023-06-19T11:18:55;4.17;;;3.83;;
1591;SDS011;789;51.612;7.510;2023-06-19T11:21:30;7.70;;;4.70;;
1591;SDS011;789;51.612;7.510;2023-06-19T11:23:58;4.90;;;4.27;;
1591;SDS011;789;51.612;7.510;2023-06-19T11:26:25;4.83;;;3.97;;
1591;SDS011;789;51.612;7.510;2023-06-19T11:28:52;6.87;;;5.33;;
1591;SDS011;789;51.612;7.510;2023-06-19T11:31:24;6.00;;;5.40;;
1591;SDS011;789;51.612;7.510;2023-06-19T11:33:57;7.23;;;5.60;;
1591;SDS011;789;51.612;7.510;2023-06-19T11:36:24;5.50;;;4.80;;
1591;SDS011;789;51.612;7.510;2023-06-19T11:38:52;7.43;;;4.70;;
1591;SDS011;789;51.612;7.510;2023-06-19T11:41:25;7.67;;;5.33;;
1591;SDS011;789;51.612;7.510;2023-06-19T11:43:58;5.17;;;4.77;;
1591;SDS011;789;51.612;7.510;2023-06-19T11:46:29;5.53;;;4.60;;
1591;SDS011;789;51.612;7.510;2023-06-19T11:48:59;6.20;;;4.63;;
1591;SDS011;789;51.612;7.510;2023-06-19T11:51:34;5.33;;;4.83;;
1591;SDS011;789;51.612;7.510;2023-06-19T11:54:02;7.77;;;6.07;;
1591;SDS011;789;51.612;7.510;2023-06-19T11:56:32;6.60;;;5.40;;
1591;SDS011;789;51.612;7.510;2023-06-19T11:58:59;6.20;;;5.60;;
1591;SDS011;789;51.612;7.510;2023-06-19T12:01:26;5.90;;;5.00;;
1591;SDS011;789;51.612;7.510;2023-06-19T12:03:55;8.50;;;4.73;;
1591;SDS011;789;51.612;7.510;2023-06-19T12:06:24;5.83;;;5.43;;
1591;SDS011;789;51.612;7.510;2023-06-19T12:09:03;4.70;;;4.40;;
1591;SDS011;789;51.612;7.510;2023-06-19T12:11:36;5.50;;;5.00;;
1591;SDS011;789;51.612;7.510;2023-06-19T12:14:03;5.93;;;5.30;;
1591;SDS011;789;51.612;7.510;2023-06-19T12:16:30;7.37;;;6.00;;
1591;SDS011;789;51.612;7.510;2023-06-19T12:18:57;5.70;;;5.10;;
1591;SDS011;789;51.612;7.510;2023-06-19T12:21:24;10.83;;;5.70;;
1591;SDS011;789;51.612;7.510;2023-06-19T12:23:51;8.70;;;5.80;;
1591;SDS011;789;51.612;7.510;2023-06-19T12:26:20;7.37;;;5.80;;
1591;SDS011;789;51.612;7.510;2023-06-19T12:28:49;5.80;;;5.30;;
1591;SDS011;789;51.612;7.510;2023-06-19T12:31:19;6.83;;;5.60;;
1591;SDS011;789;51.612;7.510;2023-06-19T12:33:46;6.60;;;6.00;;
1591;SDS011;789;51.612;7.510;2023-06-19T12:36:13;7.33;;;5.57;;
1591;SDS011;789;51.612;7.510;2023-06-19T12:38:40;7.37;;;5.30;;
1591;SDS011;789;51.612;7.510;2023-06-19T12:41:07;6.13;;;5.10;;
1591;SDS011;789;51.612;7.510;2023-06-19T12:43:36;7.80;;;5.77;;
1591;SDS011;789;51.612;7.510;2023-06-19T12:46:02;7.77;;;5.83;;
1591;SDS011;789;51.612;7.510;2023-06-19T12:48:29;6.83;;;6.10;;
1591;SDS011;789;51.612;7.510;2023-06-19T12:50:56;10.10;;;5.27;;
1591;SDS011;789;51.612;7.510;2023-06-19T12:53:23;6.00;;;5.27;;
1591;SDS011;789;51.612;7.510;2023-06-19T12:55:56;8.63;;;5.87;;
1591;SDS011;789;51.612;7.510;2023-06-19T12:58:24;6.30;;;5.70;;
1591;SDS011;789;51.612;7.510;2023-06-19T13:00:53;8.77;;;6.00;;
1591;SDS011;789;51.612;7.510;2023-06-19T13:03:24;6.53;;;5.90;;
1591;SDS011;789;51.612;7.510;2023-06-19T13:05:51;5.93;;;5.33;;
1591;SDS011;789;51.612;7.510;2023-06-19T13:08:18;6.63;;;5.03;;
1591;SDS011;789;51.612;7.510;2023-06-19T13:10:44;9.13;;;5.50;;
1591;SDS011;789;51.612;7.510;2023-06-19T13:13:13;5.00;;;4.60;;
1591;SDS011;789;51.612;7.510;2023-06-19T13:15:40;6.47;;;5.80;;
1591;SDS011;789;51.612;7.510;2023-06-19T13:18:20;8.73;;;5.60;;
1591;SDS011;789;51.612;7.510;2023-06-19T13:20:51;7.73;;;5.97;;
1591;SDS011;789;51.612;7.510;2023-06-19T13:23:18;6.37;;;5.53;;
1591;SDS011;789;51.612;7.510;2023-06-19T13:25:48;7.23;;;5.40;;
1591;SDS011;789;51.612;7.510;2023-06-19T13:28:19;7.57;;;6.27;;
1591;SDS011;789;51.612;7.510;2023-06-19T13:30:45;8.33;;;6.00;;
1591;SDS011;789;51.612;7.510;2023-06-19T13:33:16;6.23;;;5.70;;
1591;SDS011;789;51.612;7.510;2023-06-19T13:35:42;16.63;;;7.47;;
1591;SDS011;789;51.612;7.510;2023-06-19T13:38:09;7.00;;;5.97;;
1591;SDS011;789;51.612;7.510;2023-06-19T13:40:38;6.67;;;6.17;;
1591;SDS011;789;51.612;7.510;2023-06-19T13:43:05;7.93;;;5.90;;
1591;SDS011;789;51.612;7.510;2023-06-19T13:45:32;9.53;;;6.27;;
1591;SDS011;789;51.612;7.510;2023-06-19T13:47:59;7.03;;;6.33;;
1591;SDS011;789;51.612;7.510;2023-06-19T13:50:27;5.90;;;5.30;;
1591;SDS011;789;51.612;7.510;2023-06-19T13:52:54;9.30;;;6.73;;
1591;SDS011;789;51.612;7.510;2023-06-19T13:55:21;10.30;;;6.00;;
1591;SDS011;789;51.612;7.510;2023-06-19T13:57:48;6.63;;;6.07;;
1591;SDS011;789;51.612;7.510;2023-06-19T14:00:15;9.03;;;5.63;;
1591;SDS011;789;51.612;7.510;2023-06-19T14:02:43;6.83;;;5.37;;
1591;SDS011;789;51.612;7.510;2023-06-19T14:05:10;5.73;;;5.23;;
1591;SDS011;789;51.612;7.510;2023-06-19T14:07:40;6.57;;;5.67;;
1591;SDS011;789;51.612;7.510;2023-06-19T14:10:08;5.40;;;4.90;;
1591;SDS011;789;51.612;7.510;2023-06-19T14:12:36;8.20;;;5.90;;
1591;SDS011;789;51.612;7.510;2023-06-19T14:15:05;7.93;;;5.80;;
1591;SDS011;789;51.612;7.510;2023-06-19T14:17:34;6.60;;;6.00;;
1591;SDS011;789;51.612;7.510;2023-06-19T14:20:00;6.43;;;5.83;;
1591;SDS011;789;51.612;7.510;2023-06-19T14:22:29;7.33;;;6.00;;
1591;SDS011;789;51.612;7.510;2023-06-19T14:24:58;7.47;;;5.80;;
1591;SDS011;789;51.612;7.510;2023-06-19T14:27:27;7.80;;;6.00;;
1591;SDS011;789;51.612;7.510;2023-06-19T14:29:54;7.53;;;6.83;;
1591;SDS011;789;51.612;7.510;2023-06-19T14:32:21;7.07;;;6.37;;
1591;SDS011;789;51.612;7.510;2023-06-19T14:34:48;6.17;;;5.57;;
1591;SDS011;789;51.612;7.510;2023-06-19T14:37:15;8.27;;;6.10;;
1591;SDS011;789;51.612;7.510;2023-06-19T14:39:42;6.80;;;6.20;;
1591;SDS011;789;51.612;7.510;2023-06-19T14:42:11;8.50;;;5.93;;
1591;SDS011;789;51.612;7.510;2023-06-19T14:44:37;8.30;;;6.00;;
1591;SDS011;789;51.612;7.510;2023-06-19T14:47:07;6.57;;;5.83;;
1591;SDS011;789;51.612;7.510;2023-06-19T14:49:40;6.63;;;5.83;;
1591;SDS011;789;51.612;7.510;2023-06-19T14:52:07;7.30;;;6.60;;
1591;SDS011;789;51.612;7.510;2023-06-19T14:54:34;7.77;;;6.80;;
1591;SDS011;789;51.612;7.510;2023-06-19T14:57:00;7.97;;;6.50;;
1591;SDS011;789;51.612;7.510;2023-06-19T14:59:29;7.00;;;6.30;;
1591;SDS011;789;51.612;7.510;2023-06-19T15:01:56;6.23;;;5.73;;
1591;SDS011;789;51.612;7.510;2023-06-19T15:04:23;8.47;;;6.00;;
1591;SDS011;789;51.612;7.510;2023-06-19T15:06:52;6.20;;;5.60;;
1591;SDS011;789;51.612;7.510;2023-06-19T15:09:19;9.73;;;6.60;;
1591;SDS011;789;51.612;7.510;2023-06-19T15:11:46;6.63;;;5.83;;
1591;SDS011;789;51.612;7.510;2023-06-19T15:14:13;6.40;;;5.80;;
1591;SDS011;789;51.612;7.510;2023-06-19T15:16:43;6.73;;;6.13;;
1591;SDS011;789;51.612;7.510;2023-06-19T15:19:10;7.07;;;6.40;;
1591;SDS011;789;51.612;7.510;2023-06-19T15:21:37;7.80;;;6.90;;
1591;SDS011;789;51.612;7.510;2023-06-19T15:24:04;7.33;;;6.60;;
1591;SDS011;789;51.612;7.510;2023-06-19T15:26:33;7.83;;;6.20;;
1591;SDS011;789;51.612;7.510;2023-06-19T15:29:02;8.53;;;6.97;;
1591;SDS011;789;51.612;7.510;2023-06-19T15:31:29;7.30;;;6.50;;
1591;SDS011;789;51.612;7.510;2023-06-19T15:34:00;6.57;;;5.97;;
1591;SDS011;789;51.612;7.510;2023-06-19T15:36:28;7.30;;;6.70;;